The Internet Pinball Serial Number Database or IPSND collects serial numbers of pinball machines and publishes a database of these on the Internet. Our goal is to make available a registration of all pinball machines in existence and allow tools for slicing, dicing and visualization of the data.

Games: 6,217  Serials: 51,419  Visitors: 31,506,303  Members: 3,812  Photos: 28,257  Lat/Lng: 25,090  Masks: 51,419(827.07 %)  Traits: 505  Nudges: 143,722  Backglasses: 1,862
  Most Serials: Twilight Zone(1,071)  Most Submissions: Dennis Braun(3,727)  Most Points: Rod McLarge(27,987)  Highest Quality: Jim Butler(9.15)  Most Nudges: King of Pinball(19,314)
Submitter: Fun House
Member Since: Thursday, September 22, 2016
Submissions: 2,615 (4th)
SerialBot: 21,431 Points Total (3rd), 7.21 Average Score (3,158th)
Nudges: 2,565(16th)
DateGameSerialNumberGame PartSerialBotDetails
 Item 1 to 100 of 2615
Page:of 27 Page size:
9/10/2019 F-14 Tomcat 554105407 Complete Game 554105407
9/6/2019 AC/DC (Pro Vault Edition) E284517 Complete Game E284517
9/5/2019 Lethal Weapon 3 68087 Complete Game 68087
9/5/2019 The Addams Family 20017593396 Complete Game 20017593396
9/1/2019 KISS (Pro) 254229 Complete Game 254229
9/1/2019 AC/DC (Pro Vault Edition) 280146 Complete Game 280146
9/1/2019 Aerosmith (Pro) 267192 Complete Game 267192
8/29/2019 Terminator 2: Judgment Day 50013I775387 Complete Game 50013I775387
8/29/2019 Terminator 2: Judgment Day 50013I778344 Complete Game 50013I778344
8/18/2019 Earthshaker 568210763 Complete Game 568210763
8/15/2019 Indiana Jones: The Pinball Adventure 50417236071 Other Parts 50417236071
8/15/2019 High Speed 541I83665 Other Parts 541I83665
8/15/2019 Star Trek: The Next Generation 50223436611 Other Parts 50223436611
8/15/2019 High Speed 541I79254 Other Parts 541I79254
8/15/2019 High Speed 541I87747 Other Parts 541I87747
8/15/2019 High Speed 541I86047 Other Parts 541I86047
8/15/2019 EPA8241 Other Parts EPA8241
8/15/2019 Mystic EMY2744 Other Parts EMY2744
8/15/2019 WHO dunnit 53344102341 Complete Game 53344102341
8/15/2019 King of Diamonds 17 Complete Game 17
8/13/2019 Space Jam 135667 Complete Game 135667
8/13/2019 Pistol Poker 535910 Complete Game 535910
8/12/2019 Indiana Jones: The Pinball Adventure 51117192342 Complete Game 51117192342
8/12/2019 Eight Ball Deluxe Limited Edition E8B1629 Complete Game E8B1629
8/12/2019 Skateball ESB1341 Other Parts ESB1341
8/12/2019 White Water 50118928860 Complete Game 50118928860
8/12/2019 Terminator 2: Judgment Day 50013771791 Complete Game 50013771791
8/12/2019 Twilight Zone 53220119072 Complete Game 53220119072
8/10/2019 Theatre of Magic 53339104616 Complete Game 53339104616
8/9/2019 Demolition Man 50728382862 Other Parts 50728382862
8/9/2019 Doctor Who 20706688120 Other Parts 20706688120
8/6/2019 09848 Other Parts 09848
8/6/2019 The Flintstones 51429102126 Other Parts 51429102126
8/6/2019 The Shadow 52532101866 Other Parts 52532101866
8/6/2019 The Flintstones 51429104828 Complete Game 51429104828
8/6/2019 Riverboat Gambler 50007I505386 Other Parts 50007I505386
8/6/2019 Dr. Dude And His Excellent Ray 2016I496561 Complete Game 2016I496561
8/6/2019 Twilight Zone 51420084391 Other Parts 51420084391
8/6/2019 The Flintstones 51429101928 Other Parts 51429101928
8/6/2019 Star Trek: The Next Generation 51423405391 Other Parts 51423405391
8/6/2019 Theatre of Magic 51439100754 Other Parts 51439100754
8/6/2019 Bram Stoker's Dracula 51401055392 Complete Game 51401055392
8/6/2019 Ghostbusters (Pro) 260134 Complete Game 260134
8/6/2019 El Dorado 06775 Complete Game 06775
8/6/2019 Indiana Jones: The Pinball Adventure 50217240052 Other Parts 50217240052
8/4/2019 Twilight Zone 53220192381 Complete Game 53220192381
8/2/2019 The Walking Dead (Limited Edition) 250152 Complete Game 250152
8/1/2019 Fish Tales 50005I195794 Other Parts 50005I195794
8/1/2019 Fire! 556I112771 Complete Game 556I112771
8/1/2019 Joust 619390 Complete Game 619390
7/31/2019 Star Wars Limited Edition 269782 Complete Game 269782
7/30/2019 Baby Pac-Man EPB2299 Complete Game EPB2299
7/30/2019 Surf Champ 13724 Complete Game 13724
7/30/2019 Tales from the Crypt 102464 Complete Game 102464
7/30/2019 Popeye Saves the Earth 50422375772 Complete Game 50422375772
7/28/2019 Voltan Escapes Cosmic Doom VO1101 Complete Game VO1101
7/28/2019 Star Trek: The Next Generation 50623443492 Complete Game 50623443492
7/28/2019 Last Action Hero 96230 Complete Game 96230
7/28/2019 Medieval Madness 53359102212 Complete Game 53359102212
7/26/2019 The Addams Family 20017I045362 Other Parts 20017I045362
7/26/2019 The Getaway: High Speed II 50004I858697 Other Parts 50004I858697
7/26/2019 Doctor Who 20206630230 Other Parts 20206630230
7/26/2019 Terminator 2: Judgment Day 50013970295 Complete Game 50013970295
7/26/2019 Monte Carlo 3362 Complete Game 3362
7/24/2019 Jolly Park 00185 Complete Game 00185
7/24/2019 Revenge From Mars 53370106742 Complete Game 53370106742
7/23/2019 F-14 Tomcat 554107730 Complete Game 554107730
7/23/2019 Xenon EXE11270 Complete Game EXE11270
7/22/2019 Cue Ball Wizard 99658 Complete Game 99658
7/22/2019 The Shadow 50232102840 Complete Game 50232102840
7/22/2019 Creature from the Black Lagoon 22218016931 Other Parts 22218016931
7/21/2019 AC/DC (LUCI Premium) E245956 Complete Game E245956
7/21/2019 Star Pool 225970 Complete Game 225970
7/21/2019 High Speed 54181251 Complete Game 54181251
7/18/2019 Lucky Seven 316017 Complete Game 316017
7/17/2019 Eight Ball Deluxe EED8745 Body Only EED8745
7/17/2019 Scared Stiff 53348103348 Complete Game 53348103348
7/17/2019 Whirlwind 574I335022 Complete Game 574I335022
7/17/2019 Star Trek: The Next Generation 51423418141 Complete Game 51423418141
7/17/2019 NBA E223108 Complete Game E223108
7/17/2019 Pirates of the Caribbean Collector’s Edition 08733034 Complete Game 08733034
7/17/2019 The Lord of the Rings 177075 Complete Game 177075
7/17/2019 Tales from the Crypt 102476 Complete Game 102476
7/17/2019 Judge Dredd 22220195412 Complete Game 22220195412
7/17/2019 Star Trek: The Next Generation 52223210702 Other Parts 52223210702
7/16/2019 Bram Stoker's Dracula 52201041712 Complete Game 52201041712
7/16/2019 The Addams Family 20017I598092 Complete Game 20017I598092
7/16/2019 The Addams Family Special Collectors Edition 50438401022 Other Parts 50438401022
7/16/2019 The Addams Family 20017I599337 Complete Game 20017I599337
7/8/2019 Revenge From Mars 53370111737 Complete Game 53370111737
7/8/2019 Indiana Jones: The Pinball Adventure 53317301511 Other Parts 53317301511
7/1/2019 Star Trek: The Next Generation 53323471041 Complete Game 53323471041
7/1/2019 Strikes and Spares ESS7046 Complete Game ESS7046
7/1/2019 Pirates of the Caribbean Collector’s Edition 08732106 Complete Game 08732106
7/1/2019 The Bally Game Show 2003340252 Complete Game 2003340252
7/1/2019 Demolition Man 51028469281 Complete Game 51028469281
6/29/2019 Revenge From Mars 50270105184 Complete Game 50270105184
6/29/2019 Terminator 2: Judgment Day 50013I978604 Complete Game 50013I978604
6/21/2019 Space Shuttle 53522453 Complete Game 53522453
6/21/2019 Flight 2000 4733 Complete Game 4733

Supported Browsers
Back 5 | Random | Forward 5 | List ]